Hovedside
METAR-TAF:

METAR-TAF

Lufthavner :

Riga internasjonale lufthavn

Riga, Latvia

breddegrad: 56-55N, lengdegrad: 023-58E, høyde over havet: 10 m

Gjeldene værobservasjon

Denne rapporten ble laget for 18 minutter siden, klokken 16:50 UTC
Vind 8 kt fra Nord-nordvest
Temperatur 21°C
Luftfuktighet 60%
Trykk 1017 hPa
Sikt 10 km eller mer
ingen skyer under 1500 m og ingen bygeskyer

METAR: EVRA 241650Z 34008KT CAVOK 21/13 Q1017 NOSIG

Tid: 20:08 (17:08 UTC)

Varsel

Denne rapporten ble laget for 3 timer og 7 minutter siden, klokken 14:01 UTC
Varsel gyldig fra 24. klokken 15 UTC til 25. klokken 15 UTC
Vind 7 kt fra Nord-nordvest
Sikt 10 km eller mer
Spredte skyer i en høyde av 4500 ft
Midlertidig
fra 24. klokken 22 UTC til 25. klokken 03 UTC
Sikt: 3000 m
Brutte skyer i en høyde av 300 ft
dis,

TAF: EVRA 241401Z 2415/2515 34007KT 9999 SCT045 TEMPO 2422/2503 3000 BR BKN003

Værobservasjoner og værvarsel for over 4000 flyplasser (METAR- og TAF-rapporter).

Tilgjengelige stasjoner er representert av de røde og gule prikkene på kartet.

Hold musepekeren over prikken for å se navnet på stasjonen.

Klikk så for å se værobservasjoner og -varsler.

For å forandre kartet kan du klikke på den grønne knappen med svart kryss for å zoome inn, på den grønne knappen med strek for å zoome ut, eller på de grønne pilene for å se tilstøtende kart.


METAR-TAF: